sensor_id;sensor_type;location;lat;lon;timestamp;temperature;humidity
11152;DHT22;5630;49.342;10.802;2023-05-16T00:02:14;12.40;99.90
11152;DHT22;5630;49.342;10.802;2023-05-16T00:04:40;12.40;99.90
11152;DHT22;5630;49.342;10.802;2023-05-16T00:07:06;12.40;99.90
11152;DHT22;5630;49.342;10.802;2023-05-16T00:09:31;12.40;99.90
11152;DHT22;5630;49.342;10.802;2023-05-16T00:11:57;12.40;99.90
11152;DHT22;5630;49.342;10.802;2023-05-16T00:14:23;12.30;99.90
11152;DHT22;5630;49.342;10.802;2023-05-16T00:16:51;12.30;99.90
11152;DHT22;5630;49.342;10.802;2023-05-16T00:19:17;12.30;99.90
11152;DHT22;5630;49.342;10.802;2023-05-16T00:21:44;12.30;99.90
11152;DHT22;5630;49.342;10.802;2023-05-16T00:24:10;12.20;99.90
11152;DHT22;5630;49.342;10.802;2023-05-16T00:26:35;12.30;99.90
11152;DHT22;5630;49.342;10.802;2023-05-16T00:29:01;12.20;99.90
11152;DHT22;5630;49.342;10.802;2023-05-16T00:31:27;12.20;99.90
11152;DHT22;5630;49.342;10.802;2023-05-16T00:33:52;12.10;99.90
11152;DHT22;5630;49.342;10.802;2023-05-16T00:36:19;12.10;99.90
11152;DHT22;5630;49.342;10.802;2023-05-16T00:38:46;12.10;99.90
11152;DHT22;5630;49.342;10.802;2023-05-16T00:41:11;12.00;99.90
11152;DHT22;5630;49.342;10.802;2023-05-16T00:43:37;12.00;99.90
11152;DHT22;5630;49.342;10.802;2023-05-16T00:46:04;12.00;99.90
11152;DHT22;5630;49.342;10.802;2023-05-16T00:48:30;11.90;99.90
11152;DHT22;5630;49.342;10.802;2023-05-16T00:50:55;11.90;99.90
11152;DHT22;5630;49.342;10.802;2023-05-16T00:53:22;11.80;99.90
11152;DHT22;5630;49.342;10.802;2023-05-16T00:55:48;11.80;99.90
11152;DHT22;5630;49.342;10.802;2023-05-16T00:58:15;11.70;99.90
11152;DHT22;5630;49.342;10.802;2023-05-16T01:00:41;11.70;99.90
11152;DHT22;5630;49.342;10.802;2023-05-16T01:03:07;11.70;99.90
11152;DHT22;5630;49.342;10.802;2023-05-16T01:05:33;11.70;99.90
11152;DHT22;5630;49.342;10.802;2023-05-16T01:07:58;11.60;99.90
11152;DHT22;5630;49.342;10.802;2023-05-16T01:10:26;11.60;99.90
11152;DHT22;5630;49.342;10.802;2023-05-16T01:15:31;11.50;99.90
11152;DHT22;5630;49.342;10.802;2023-05-16T01:18:07;11.50;99.90
11152;DHT22;5630;49.342;10.802;2023-05-16T01:26:20;11.50;99.90
11152;DHT22;5630;49.342;10.802;2023-05-16T01:28:47;11.50;99.90
11152;DHT22;5630;49.342;10.802;2023-05-16T01:31:14;11.50;99.90
11152;DHT22;5630;49.342;10.802;2023-05-16T01:33:40;11.40;99.90
11152;DHT22;5630;49.342;10.802;2023-05-16T01:41:20;11.40;99.90
11152;DHT22;5630;49.342;10.802;2023-05-16T01:43:52;11.40;99.90
11152;DHT22;5630;49.342;10.802;2023-05-16T01:46:24;11.40;99.90
11152;DHT22;5630;49.342;10.802;2023-05-16T01:51:42;11.40;99.90
11152;DHT22;5630;49.342;10.802;2023-05-16T01:54:11;11.40;99.90
11152;DHT22;5630;49.342;10.802;2023-05-16T01:56:38;11.40;99.90
11152;DHT22;5630;49.342;10.802;2023-05-16T01:59:04;11.40;99.90
11152;DHT22;5630;49.342;10.802;2023-05-16T02:01:30;11.30;99.90
11152;DHT22;5630;49.342;10.802;2023-05-16T02:03:58;11.30;99.90
11152;DHT22;5630;49.342;10.802;2023-05-16T02:06:23;11.30;99.90
11152;DHT22;5630;49.342;10.802;2023-05-16T02:08:50;11.30;99.90
11152;DHT22;5630;49.342;10.802;2023-05-16T02:11:16;11.30;99.90
11152;DHT22;5630;49.342;10.802;2023-05-16T02:13:41;11.20;99.90
11152;DHT22;5630;49.342;10.802;2023-05-16T02:16:09;11.30;99.90
11152;DHT22;5630;49.342;10.802;2023-05-16T02:18:35;11.30;99.90
11152;DHT22;5630;49.342;10.802;2023-05-16T02:21:00;11.30;99.90
11152;DHT22;5630;49.342;10.802;2023-05-16T02:23:26;11.30;99.90
11152;DHT22;5630;49.342;10.802;2023-05-16T02:25:52;11.40;99.90
11152;DHT22;5630;49.342;10.802;2023-05-16T02:28:17;11.40;99.90
11152;DHT22;5630;49.342;10.802;2023-05-16T02:30:43;11.40;99.90
11152;DHT22;5630;49.342;10.802;2023-05-16T02:33:10;11.40;99.90
11152;DHT22;5630;49.342;10.802;2023-05-16T02:35:35;11.40;99.90
11152;DHT22;5630;49.342;10.802;2023-05-16T02:38:01;11.40;99.90
11152;DHT22;5630;49.342;10.802;2023-05-16T02:40:27;11.40;99.90
11152;DHT22;5630;49.342;10.802;2023-05-16T02:42:52;11.40;99.90
11152;DHT22;5630;49.342;10.802;2023-05-16T02:45:18;11.40;99.90
11152;DHT22;5630;49.342;10.802;2023-05-16T02:47:43;11.40;99.90
11152;DHT22;5630;49.342;10.802;2023-05-16T02:50:09;11.30;99.90
11152;DHT22;5630;49.342;10.802;2023-05-16T02:52:34;11.30;99.90
11152;DHT22;5630;49.342;10.802;2023-05-16T02:55:00;11.30;99.90
11152;DHT22;5630;49.342;10.802;2023-05-16T02:57:26;11.30;99.90
11152;DHT22;5630;49.342;10.802;2023-05-16T02:59:51;11.20;99.90
11152;DHT22;5630;49.342;10.802;2023-05-16T03:02:17;11.20;99.90
11152;DHT22;5630;49.342;10.802;2023-05-16T03:04:42;11.10;99.90
11152;DHT22;5630;49.342;10.802;2023-05-16T03:07:08;11.10;99.90
11152;DHT22;5630;49.342;10.802;2023-05-16T03:09:33;11.10;99.90
11152;DHT22;5630;49.342;10.802;2023-05-16T03:11:59;11.00;99.90
11152;DHT22;5630;49.342;10.802;2023-05-16T03:14:25;11.00;99.90
11152;DHT22;5630;49.342;10.802;2023-05-16T03:16:50;11.00;99.90
11152;DHT22;5630;49.342;10.802;2023-05-16T03:19:16;10.90;99.90
11152;DHT22;5630;49.342;10.802;2023-05-16T03:21:42;10.90;99.90
11152;DHT22;5630;49.342;10.802;2023-05-16T03:24:07;10.90;99.90
11152;DHT22;5630;49.342;10.802;2023-05-16T03:26:33;10.90;99.90
11152;DHT22;5630;49.342;10.802;2023-05-16T03:28:59;10.90;99.90
11152;DHT22;5630;49.342;10.802;2023-05-16T03:31:24;10.90;99.90
11152;DHT22;5630;49.342;10.802;2023-05-16T03:33:50;10.90;99.90
11152;DHT22;5630;49.342;10.802;2023-05-16T03:36:15;10.90;99.90
11152;DHT22;5630;49.342;10.802;2023-05-16T03:38:41;10.90;99.90
11152;DHT22;5630;49.342;10.802;2023-05-16T03:41:07;10.90;99.90
11152;DHT22;5630;49.342;10.802;2023-05-16T03:43:32;10.90;99.90
11152;DHT22;5630;49.342;10.802;2023-05-16T03:46:00;10.90;99.90
11152;DHT22;5630;49.342;10.802;2023-05-16T03:48:25;10.90;99.90
11152;DHT22;5630;49.342;10.802;2023-05-16T03:50:51;10.90;99.90
11152;DHT22;5630;49.342;10.802;2023-05-16T03:53:17;10.90;99.90
11152;DHT22;5630;49.342;10.802;2023-05-16T03:55:42;10.90;99.90
11152;DHT22;5630;49.342;10.802;2023-05-16T03:58:08;10.90;99.90
11152;DHT22;5630;49.342;10.802;2023-05-16T04:00:34;10.90;99.90
11152;DHT22;5630;49.342;10.802;2023-05-16T04:03:01;10.90;99.90
11152;DHT22;5630;49.342;10.802;2023-05-16T04:05:26;10.90;99.90
11152;DHT22;5630;49.342;10.802;2023-05-16T04:07:53;10.90;99.90
11152;DHT22;5630;49.342;10.802;2023-05-16T04:10:19;10.90;99.90
11152;DHT22;5630;49.342;10.802;2023-05-16T04:12:44;11.00;99.90
11152;DHT22;5630;49.342;10.802;2023-05-16T04:15:10;11.00;99.90
11152;DHT22;5630;49.342;10.802;2023-05-16T04:17:35;11.00;99.90
11152;DHT22;5630;49.342;10.802;2023-05-16T04:20:01;11.00;99.90
11152;DHT22;5630;49.342;10.802;2023-05-16T04:22:28;11.00;99.90
11152;DHT22;5630;49.342;10.802;2023-05-16T04:24:54;11.00;99.90
11152;DHT22;5630;49.342;10.802;2023-05-16T04:27:20;11.10;99.90
11152;DHT22;5630;49.342;10.802;2023-05-16T04:29:45;11.00;99.90
11152;DHT22;5630;49.342;10.802;2023-05-16T04:32:11;11.10;99.90
11152;DHT22;5630;49.342;10.802;2023-05-16T04:34:36;11.00;99.90
11152;DHT22;5630;49.342;10.802;2023-05-16T04:37:06;11.00;99.90
11152;DHT22;5630;49.342;10.802;2023-05-16T04:39:32;11.10;99.90
11152;DHT22;5630;49.342;10.802;2023-05-16T04:41:58;11.20;99.90
11152;DHT22;5630;49.342;10.802;2023-05-16T04:44:24;11.10;99.90
11152;DHT22;5630;49.342;10.802;2023-05-16T04:46:51;11.20;99.90
11152;DHT22;5630;49.342;10.802;2023-05-16T04:49:18;11.20;99.90
11152;DHT22;5630;49.342;10.802;2023-05-16T04:51:43;11.20;99.90
11152;DHT22;5630;49.342;10.802;2023-05-16T04:54:09;11.30;99.90
11152;DHT22;5630;49.342;10.802;2023-05-16T04:56:35;11.20;99.90
11152;DHT22;5630;49.342;10.802;2023-05-16T04:59:01;11.10;99.90
11152;DHT22;5630;49.342;10.802;2023-05-16T05:01:26;11.10;99.90
11152;DHT22;5630;49.342;10.802;2023-05-16T05:03:52;11.10;99.90
11152;DHT22;5630;49.342;10.802;2023-05-16T05:06:17;11.20;99.90
11152;DHT22;5630;49.342;10.802;2023-05-16T05:08:43;11.20;99.90
11152;DHT22;5630;49.342;10.802;2023-05-16T05:11:08;11.20;99.90
11152;DHT22;5630;49.342;10.802;2023-05-16T05:13:34;11.30;99.90
11152;DHT22;5630;49.342;10.802;2023-05-16T05:16:00;11.20;99.90
11152;DHT22;5630;49.342;10.802;2023-05-16T05:18:29;11.30;99.90
11152;DHT22;5630;49.342;10.802;2023-05-16T05:20:54;11.20;99.90
11152;DHT22;5630;49.342;10.802;2023-05-16T05:23:20;11.30;99.90
11152;DHT22;5630;49.342;10.802;2023-05-16T05:25:46;11.30;99.90
11152;DHT22;5630;49.342;10.802;2023-05-16T05:28:11;11.40;99.90
11152;DHT22;5630;49.342;10.802;2023-05-16T05:30:37;11.40;99.90
11152;DHT22;5630;49.342;10.802;2023-05-16T05:33:02;11.40;99.90
11152;DHT22;5630;49.342;10.802;2023-05-16T05:35:28;11.50;99.90
11152;DHT22;5630;49.342;10.802;2023-05-16T05:37:53;11.90;99.90
11152;DHT22;5630;49.342;10.802;2023-05-16T05:40:19;12.50;99.90
11152;DHT22;5630;49.342;10.802;2023-05-16T05:42:44;13.00;99.90
11152;DHT22;5630;49.342;10.802;2023-05-16T05:45:10;13.40;99.90
11152;DHT22;5630;49.342;10.802;2023-05-16T05:47:36;13.60;99.90
11152;DHT22;5630;49.342;10.802;2023-05-16T05:50:02;14.00;99.90
11152;DHT22;5630;49.342;10.802;2023-05-16T05:52:28;13.90;99.90
11152;DHT22;5630;49.342;10.802;2023-05-16T05:54:54;13.50;99.90
11152;DHT22;5630;49.342;10.802;2023-05-16T05:57:19;13.20;99.90
11152;DHT22;5630;49.342;10.802;2023-05-16T05:59:45;12.80;99.90
11152;DHT22;5630;49.342;10.802;2023-05-16T06:02:11;12.60;99.90
11152;DHT22;5630;49.342;10.802;2023-05-16T06:04:37;12.80;99.90
11152;DHT22;5630;49.342;10.802;2023-05-16T06:07:03;12.60;99.90
11152;DHT22;5630;49.342;10.802;2023-05-16T06:09:29;12.50;99.90
11152;DHT22;5630;49.342;10.802;2023-05-16T06:11:54;12.40;99.90
11152;DHT22;5630;49.342;10.802;2023-05-16T06:14:20;12.40;99.90
11152;DHT22;5630;49.342;10.802;2023-05-16T06:16:45;12.40;99.90
11152;DHT22;5630;49.342;10.802;2023-05-16T06:19:11;12.30;99.90
11152;DHT22;5630;49.342;10.802;2023-05-16T06:21:41;12.30;99.90
11152;DHT22;5630;49.342;10.802;2023-05-16T06:24:07;12.30;99.90
11152;DHT22;5630;49.342;10.802;2023-05-16T06:26:33;12.20;99.90
11152;DHT22;5630;49.342;10.802;2023-05-16T06:28:58;12.20;99.90
11152;DHT22;5630;49.342;10.802;2023-05-16T06:31:24;12.20;99.90
11152;DHT22;5630;49.342;10.802;2023-05-16T06:33:50;12.40;99.90
11152;DHT22;5630;49.342;10.802;2023-05-16T06:36:15;12.30;99.90
11152;DHT22;5630;49.342;10.802;2023-05-16T06:38:41;12.30;99.90
11152;DHT22;5630;49.342;10.802;2023-05-16T06:41:07;12.20;99.90
11152;DHT22;5630;49.342;10.802;2023-05-16T06:43:33;12.20;99.90
11152;DHT22;5630;49.342;10.802;2023-05-16T06:45:58;12.10;99.90
11152;DHT22;5630;49.342;10.802;2023-05-16T06:48:24;12.20;99.90
11152;DHT22;5630;49.342;10.802;2023-05-16T06:50:50;12.10;99.90
11152;DHT22;5630;49.342;10.802;2023-05-16T06:53:18;12.30;99.90
11152;DHT22;5630;49.342;10.802;2023-05-16T06:55:44;12.50;99.90
11152;DHT22;5630;49.342;10.802;2023-05-16T06:58:10;12.70;99.90
11152;DHT22;5630;49.342;10.802;2023-05-16T07:00:36;12.80;99.90
11152;DHT22;5630;49.342;10.802;2023-05-16T07:03:02;12.90;99.90
11152;DHT22;5630;49.342;10.802;2023-05-16T07:05:30;13.00;99.90
11152;DHT22;5630;49.342;10.802;2023-05-16T07:07:56;13.30;99.90
11152;DHT22;5630;49.342;10.802;2023-05-16T07:10:21;13.50;99.90
11152;DHT22;5630;49.342;10.802;2023-05-16T07:12:47;13.70;99.90
11152;DHT22;5630;49.342;10.802;2023-05-16T07:15:13;13.80;99.90
11152;DHT22;5630;49.342;10.802;2023-05-16T07:17:39;13.80;99.90
11152;DHT22;5630;49.342;10.802;2023-05-16T07:20:05;14.20;99.90
11152;DHT22;5630;49.342;10.802;2023-05-16T07:22:31;14.20;99.90
11152;DHT22;5630;49.342;10.802;2023-05-16T07:24:57;14.30;99.90
11152;DHT22;5630;49.342;10.802;2023-05-16T07:27:25;14.30;99.90
11152;DHT22;5630;49.342;10.802;2023-05-16T07:29:51;14.40;99.90
11152;DHT22;5630;49.342;10.802;2023-05-16T07:32:17;14.20;99.90
11152;DHT22;5630;49.342;10.802;2023-05-16T07:34:42;14.20;99.90
11152;DHT22;5630;49.342;10.802;2023-05-16T07:37:08;14.10;99.90
11152;DHT22;5630;49.342;10.802;2023-05-16T07:39:38;14.10;99.90
11152;DHT22;5630;49.342;10.802;2023-05-16T07:42:07;14.30;99.90
11152;DHT22;5630;49.342;10.802;2023-05-16T07:44:32;14.40;99.90
11152;DHT22;5630;49.342;10.802;2023-05-16T07:46:58;14.40;99.90
11152;DHT22;5630;49.342;10.802;2023-05-16T07:49:24;14.70;99.90
11152;DHT22;5630;49.342;10.802;2023-05-16T07:51:50;15.00;99.90
11152;DHT22;5630;49.342;10.802;2023-05-16T07:54:16;15.00;99.90
11152;DHT22;5630;49.342;10.802;2023-05-16T07:56:41;15.20;99.90
11152;DHT22;5630;49.342;10.802;2023-05-16T07:59:07;14.80;99.90
11152;DHT22;5630;49.342;10.802;2023-05-16T08:01:33;14.80;99.90
11152;DHT22;5630;49.342;10.802;2023-05-16T08:03:58;14.70;99.90
11152;DHT22;5630;49.342;10.802;2023-05-16T08:06:24;14.70;99.90
11152;DHT22;5630;49.342;10.802;2023-05-16T08:08:49;14.60;99.90
11152;DHT22;5630;49.342;10.802;2023-05-16T08:11:15;14.60;99.90
11152;DHT22;5630;49.342;10.802;2023-05-16T08:13:41;14.60;99.90
11152;DHT22;5630;49.342;10.802;2023-05-16T08:16:06;14.50;99.90
11152;DHT22;5630;49.342;10.802;2023-05-16T08:18:32;14.50;99.90
11152;DHT22;5630;49.342;10.802;2023-05-16T08:20:57;14.30;99.90
11152;DHT22;5630;49.342;10.802;2023-05-16T08:23:23;14.40;99.90
11152;DHT22;5630;49.342;10.802;2023-05-16T08:25:48;14.40;99.90
11152;DHT22;5630;49.342;10.802;2023-05-16T08:28:14;14.40;99.90
11152;DHT22;5630;49.342;10.802;2023-05-16T08:30:40;14.40;99.90
11152;DHT22;5630;49.342;10.802;2023-05-16T08:33:05;14.50;99.90
11152;DHT22;5630;49.342;10.802;2023-05-16T08:35:31;14.60;99.90
11152;DHT22;5630;49.342;10.802;2023-05-16T08:37:59;14.60;99.90
11152;DHT22;5630;49.342;10.802;2023-05-16T08:40:27;14.60;99.90
11152;DHT22;5630;49.342;10.802;2023-05-16T08:42:53;14.80;99.90
11152;DHT22;5630;49.342;10.802;2023-05-16T08:45:20;15.00;99.90
11152;DHT22;5630;49.342;10.802;2023-05-16T08:47:47;15.20;99.90
11152;DHT22;5630;49.342;10.802;2023-05-16T08:50:14;15.20;99.90
11152;DHT22;5630;49.342;10.802;2023-05-16T08:52:42;15.30;99.90
11152;DHT22;5630;49.342;10.802;2023-05-16T08:55:09;15.40;99.90
11152;DHT22;5630;49.342;10.802;2023-05-16T08:57:36;15.50;99.90
11152;DHT22;5630;49.342;10.802;2023-05-16T09:00:02;15.50;99.90
11152;DHT22;5630;49.342;10.802;2023-05-16T09:02:37;15.80;99.90
11152;DHT22;5630;49.342;10.802;2023-05-16T09:05:03;15.80;99.90
11152;DHT22;5630;49.342;10.802;2023-05-16T09:07:30;15.80;99.90
11152;DHT22;5630;49.342;10.802;2023-05-16T09:09:55;15.80;99.90
11152;DHT22;5630;49.342;10.802;2023-05-16T09:12:21;15.60;99.90
11152;DHT22;5630;49.342;10.802;2023-05-16T09:14:47;15.40;99.90
11152;DHT22;5630;49.342;10.802;2023-05-16T09:17:13;15.20;99.90
11152;DHT22;5630;49.342;10.802;2023-05-16T09:19:41;15.10;99.90
11152;DHT22;5630;49.342;10.802;2023-05-16T09:22:12;15.10;99.90
11152;DHT22;5630;49.342;10.802;2023-05-16T09:24:42;15.10;99.90
11152;DHT22;5630;49.342;10.802;2023-05-16T09:27:13;14.90;99.90
11152;DHT22;5630;49.342;10.802;2023-05-16T09:29:40;15.00;99.90
11152;DHT22;5630;49.342;10.802;2023-05-16T09:32:13;14.90;99.90
11152;DHT22;5630;49.342;10.802;2023-05-16T09:34:45;14.80;99.90
11152;DHT22;5630;49.342;10.802;2023-05-16T09:37:17;14.70;99.90
11152;DHT22;5630;49.342;10.802;2023-05-16T09:39:47;14.80;99.90
11152;DHT22;5630;49.342;10.802;2023-05-16T09:42:14;14.90;99.90
11152;DHT22;5630;49.342;10.802;2023-05-16T09:44:41;15.00;99.90
11152;DHT22;5630;49.342;10.802;2023-05-16T09:47:06;15.00;99.90
11152;DHT22;5630;49.342;10.802;2023-05-16T09:49:32;15.00;99.90
11152;DHT22;5630;49.342;10.802;2023-05-16T09:52:01;15.00;99.90
11152;DHT22;5630;49.342;10.802;2023-05-16T09:54:31;14.90;99.90
11152;DHT22;5630;49.342;10.802;2023-05-16T09:56:58;14.80;99.90
11152;DHT22;5630;49.342;10.802;2023-05-16T09:59:25;14.60;99.90
11152;DHT22;5630;49.342;10.802;2023-05-16T10:01:52;14.70;99.90
11152;DHT22;5630;49.342;10.802;2023-05-16T10:04:17;14.70;99.90
11152;DHT22;5630;49.342;10.802;2023-05-16T10:06:44;14.80;99.90
11152;DHT22;5630;49.342;10.802;2023-05-16T10:09:11;14.90;99.90
11152;DHT22;5630;49.342;10.802;2023-05-16T10:11:41;15.10;99.90
11152;DHT22;5630;49.342;10.802;2023-05-16T10:14:10;15.20;99.90
11152;DHT22;5630;49.342;10.802;2023-05-16T10:16:36;15.20;99.90
11152;DHT22;5630;49.342;10.802;2023-05-16T10:19:02;15.20;99.90
11152;DHT22;5630;49.342;10.802;2023-05-16T10:21:28;15.50;99.90
11152;DHT22;5630;49.342;10.802;2023-05-16T10:23:55;15.30;99.90
11152;DHT22;5630;49.342;10.802;2023-05-16T10:26:23;15.30;99.90
11152;DHT22;5630;49.342;10.802;2023-05-16T10:28:50;15.40;99.90
11152;DHT22;5630;49.342;10.802;2023-05-16T10:31:17;15.60;99.90
11152;DHT22;5630;49.342;10.802;2023-05-16T10:33:44;16.10;99.90
11152;DHT22;5630;49.342;10.802;2023-05-16T10:36:10;16.20;99.90
11152;DHT22;5630;49.342;10.802;2023-05-16T10:38:37;16.50;99.90
11152;DHT22;5630;49.342;10.802;2023-05-16T10:41:04;16.90;99.90
11152;DHT22;5630;49.342;10.802;2023-05-16T10:43:30;17.00;99.90
11152;DHT22;5630;49.342;10.802;2023-05-16T10:46:01;17.40;99.90
11152;DHT22;5630;49.342;10.802;2023-05-16T10:50:54;17.70;99.90
11152;DHT22;5630;49.342;10.802;2023-05-16T10:53:29;17.70;99.90
11152;DHT22;5630;49.342;10.802;2023-05-16T11:01:29;17.70;99.90
11152;DHT22;5630;49.342;10.802;2023-05-16T11:06:34;17.30;99.90
11152;DHT22;5630;49.342;10.802;2023-05-16T11:09:03;17.40;99.90
11152;DHT22;5630;49.342;10.802;2023-05-16T11:11:45;17.50;99.90
11152;DHT22;5630;49.342;10.802;2023-05-16T11:14:41;18.00;99.90
11152;DHT22;5630;49.342;10.802;2023-05-16T11:17:08;17.80;99.90
11152;DHT22;5630;49.342;10.802;2023-05-16T11:19:44;17.60;99.90
11152;DHT22;5630;49.342;10.802;2023-05-16T11:24:53;18.00;99.90
11152;DHT22;5630;49.342;10.802;2023-05-16T11:27:28;18.20;99.90
11152;DHT22;5630;49.342;10.802;2023-05-16T11:32:30;17.80;99.90
11152;DHT22;5630;49.342;10.802;2023-05-16T11:34:57;17.90;99.90
11152;DHT22;5630;49.342;10.802;2023-05-16T11:37:23;17.60;99.90
11152;DHT22;5630;49.342;10.802;2023-05-16T11:39:49;17.50;99.90
11152;DHT22;5630;49.342;10.802;2023-05-16T11:42:15;17.70;99.90
11152;DHT22;5630;49.342;10.802;2023-05-16T11:44:42;17.90;99.90
11152;DHT22;5630;49.342;10.802;2023-05-16T11:47:08;18.00;99.90
11152;DHT22;5630;49.342;10.802;2023-05-16T11:49:34;17.80;99.90
11152;DHT22;5630;49.342;10.802;2023-05-16T11:52:01;17.40;99.90
11152;DHT22;5630;49.342;10.802;2023-05-16T11:54:26;17.40;99.90
11152;DHT22;5630;49.342;10.802;2023-05-16T11:56:52;17.50;99.90
11152;DHT22;5630;49.342;10.802;2023-05-16T11:59:18;17.50;99.90
11152;DHT22;5630;49.342;10.802;2023-05-16T12:01:45;17.70;99.90
11152;DHT22;5630;49.342;10.802;2023-05-16T12:04:14;17.60;99.90
11152;DHT22;5630;49.342;10.802;2023-05-16T12:06:41;17.50;99.90
11152;DHT22;5630;49.342;10.802;2023-05-16T12:09:11;17.50;99.90
11152;DHT22;5630;49.342;10.802;2023-05-16T12:11:38;17.10;99.90
11152;DHT22;5630;49.342;10.802;2023-05-16T12:14:06;17.00;99.90
11152;DHT22;5630;49.342;10.802;2023-05-16T12:16:32;16.80;99.90
11152;DHT22;5630;49.342;10.802;2023-05-16T12:18:59;16.60;99.90
11152;DHT22;5630;49.342;10.802;2023-05-16T12:21:26;16.70;99.90
11152;DHT22;5630;49.342;10.802;2023-05-16T12:23:55;16.70;99.90
11152;DHT22;5630;49.342;10.802;2023-05-16T12:26:28;16.60;99.90
11152;DHT22;5630;49.342;10.802;2023-05-16T12:29:02;16.70;99.90
11152;DHT22;5630;49.342;10.802;2023-05-16T12:31:33;16.60;99.90
11152;DHT22;5630;49.342;10.802;2023-05-16T12:34:00;16.50;99.90
11152;DHT22;5630;49.342;10.802;2023-05-16T12:36:30;16.40;99.90
11152;DHT22;5630;49.342;10.802;2023-05-16T12:38:59;16.10;99.90
11152;DHT22;5630;49.342;10.802;2023-05-16T12:41:26;16.20;99.90
11152;DHT22;5630;49.342;10.802;2023-05-16T12:44:12;16.30;99.90
11152;DHT22;5630;49.342;10.802;2023-05-16T12:46:46;16.50;99.90
11152;DHT22;5630;49.342;10.802;2023-05-16T12:49:13;16.80;99.90
11152;DHT22;5630;49.342;10.802;2023-05-16T12:51:39;16.80;99.90
11152;DHT22;5630;49.342;10.802;2023-05-16T12:54:11;16.70;99.90
11152;DHT22;5630;49.342;10.802;2023-05-16T12:56:38;16.60;99.90
11152;DHT22;5630;49.342;10.802;2023-05-16T12:59:04;16.70;99.90
11152;DHT22;5630;49.342;10.802;2023-05-16T13:01:29;16.50;99.90
11152;DHT22;5630;49.342;10.802;2023-05-16T13:03:55;16.30;99.90
11152;DHT22;5630;49.342;10.802;2023-05-16T13:06:21;16.40;99.90
11152;DHT22;5630;49.342;10.802;2023-05-16T13:08:46;16.50;99.90
11152;DHT22;5630;49.342;10.802;2023-05-16T13:11:12;16.40;99.90
11152;DHT22;5630;49.342;10.802;2023-05-16T13:13:37;16.60;99.90
11152;DHT22;5630;49.342;10.802;2023-05-16T13:16:03;16.80;99.90
11152;DHT22;5630;49.342;10.802;2023-05-16T13:18:28;16.80;99.90
11152;DHT22;5630;49.342;10.802;2023-05-16T13:20:54;17.00;99.90
11152;DHT22;5630;49.342;10.802;2023-05-16T13:23:20;16.80;99.90
11152;DHT22;5630;49.342;10.802;2023-05-16T13:25:45;16.40;99.90
11152;DHT22;5630;49.342;10.802;2023-05-16T13:28:11;16.50;99.90
11152;DHT22;5630;49.342;10.802;2023-05-16T13:30:37;16.40;99.90
11152;DHT22;5630;49.342;10.802;2023-05-16T13:33:03;16.70;99.90
11152;DHT22;5630;49.342;10.802;2023-05-16T13:35:28;16.50;99.90
11152;DHT22;5630;49.342;10.802;2023-05-16T13:37:54;16.60;99.90
11152;DHT22;5630;49.342;10.802;2023-05-16T13:40:20;16.40;99.90
11152;DHT22;5630;49.342;10.802;2023-05-16T13:42:45;16.10;99.90
11152;DHT22;5630;49.342;10.802;2023-05-16T13:45:11;15.80;99.90
11152;DHT22;5630;49.342;10.802;2023-05-16T13:47:37;15.70;99.90
11152;DHT22;5630;49.342;10.802;2023-05-16T13:50:03;15.80;99.90
11152;DHT22;5630;49.342;10.802;2023-05-16T13:52:33;15.70;99.90
11152;DHT22;5630;49.342;10.802;2023-05-16T13:54:59;15.80;99.90
11152;DHT22;5630;49.342;10.802;2023-05-16T13:57:24;15.80;99.90
11152;DHT22;5630;49.342;10.802;2023-05-16T13:59:51;15.90;99.90
11152;DHT22;5630;49.342;10.802;2023-05-16T14:02:18;15.80;99.90
11152;DHT22;5630;49.342;10.802;2023-05-16T14:04:44;15.70;99.90
11152;DHT22;5630;49.342;10.802;2023-05-16T14:07:10;15.60;99.90
11152;DHT22;5630;49.342;10.802;2023-05-16T14:09:35;15.60;99.90
11152;DHT22;5630;49.342;10.802;2023-05-16T14:12:04;15.50;99.90
11152;DHT22;5630;49.342;10.802;2023-05-16T14:14:32;15.50;99.90
11152;DHT22;5630;49.342;10.802;2023-05-16T14:16:57;15.40;99.90
11152;DHT22;5630;49.342;10.802;2023-05-16T14:19:23;15.40;99.90
11152;DHT22;5630;49.342;10.802;2023-05-16T14:21:49;15.60;99.90
11152;DHT22;5630;49.342;10.802;2023-05-16T14:24:14;15.50;99.90
11152;DHT22;5630;49.342;10.802;2023-05-16T14:26:40;15.60;99.90
11152;DHT22;5630;49.342;10.802;2023-05-16T14:29:06;15.50;99.90
11152;DHT22;5630;49.342;10.802;2023-05-16T14:31:31;15.20;99.90
11152;DHT22;5630;49.342;10.802;2023-05-16T14:33:57;15.10;99.90
11152;DHT22;5630;49.342;10.802;2023-05-16T14:36:23;15.00;99.90
11152;DHT22;5630;49.342;10.802;2023-05-16T14:38:49;14.80;99.90
11152;DHT22;5630;49.342;10.802;2023-05-16T14:43:41;14.70;99.90
11152;DHT22;5630;49.342;10.802;2023-05-16T14:46:06;14.60;99.90
11152;DHT22;5630;49.342;10.802;2023-05-16T14:48:32;14.60;99.90
11152;DHT22;5630;49.342;10.802;2023-05-16T14:50:58;14.50;99.90
11152;DHT22;5630;49.342;10.802;2023-05-16T14:53:24;14.60;99.90
11152;DHT22;5630;49.342;10.802;2023-05-16T14:55:49;14.50;99.90
11152;DHT22;5630;49.342;10.802;2023-05-16T14:58:15;14.60;99.90
11152;DHT22;5630;49.342;10.802;2023-05-16T15:00:40;14.70;99.90
11152;DHT22;5630;49.342;10.802;2023-05-16T15:03:06;14.70;99.90
11152;DHT22;5630;49.342;10.802;2023-05-16T15:05:32;14.80;99.90
11152;DHT22;5630;49.342;10.802;2023-05-16T15:07:58;14.60;99.90
11152;DHT22;5630;49.342;10.802;2023-05-16T15:10:24;14.50;99.90
11152;DHT22;5630;49.342;10.802;2023-05-16T15:12:50;14.30;99.90
11152;DHT22;5630;49.342;10.802;2023-05-16T15:15:15;14.20;99.90
11152;DHT22;5630;49.342;10.802;2023-05-16T15:17:41;14.20;99.90
11152;DHT22;5630;49.342;10.802;2023-05-16T15:20:08;14.10;99.90
11152;DHT22;5630;49.342;10.802;2023-05-16T15:22:38;14.10;99.90
11152;DHT22;5630;49.342;10.802;2023-05-16T15:25:05;14.00;99.90
11152;DHT22;5630;49.342;10.802;2023-05-16T15:27:31;13.90;99.90
11152;DHT22;5630;49.342;10.802;2023-05-16T15:29:57;13.90;99.90
11152;DHT22;5630;49.342;10.802;2023-05-16T15:32:23;13.80;99.90
11152;DHT22;5630;49.342;10.802;2023-05-16T15:34:49;13.80;99.90
11152;DHT22;5630;49.342;10.802;2023-05-16T15:37:14;13.70;99.90
11152;DHT22;5630;49.342;10.802;2023-05-16T15:39:40;13.60;99.90
11152;DHT22;5630;49.342;10.802;2023-05-16T15:42:06;13.60;99.90
11152;DHT22;5630;49.342;10.802;2023-05-16T15:44:32;13.60;99.90
11152;DHT22;5630;49.342;10.802;2023-05-16T15:46:59;13.60;99.90
11152;DHT22;5630;49.342;10.802;2023-05-16T15:49:24;13.60;99.90
11152;DHT22;5630;49.342;10.802;2023-05-16T15:51:50;13.60;99.90
11152;DHT22;5630;49.342;10.802;2023-05-16T15:54:15;13.40;99.90
11152;DHT22;5630;49.342;10.802;2023-05-16T15:56:41;13.50;99.90
11152;DHT22;5630;49.342;10.802;2023-05-16T15:59:07;13.40;99.90
11152;DHT22;5630;49.342;10.802;2023-05-16T16:01:32;13.30;99.90